createdAt,value
2018-07-04T00:00:15.584Z,4.50
2018-07-04T00:03:04.167Z,8.73
2018-07-04T00:05:45.019Z,4.90
2018-07-04T00:08:27.514Z,4.50
2018-07-04T00:11:08.448Z,5.10
2018-07-04T00:13:49.907Z,5.03
2018-07-04T00:16:31.457Z,4.90
2018-07-04T00:19:14.888Z,6.60
2018-07-04T00:21:56.457Z,5.03
2018-07-04T00:24:42.259Z,7.67
2018-07-04T00:27:23.559Z,4.43
2018-07-04T00:32:59.945Z,5.00
2018-07-04T00:35:40.648Z,6.57
2018-07-04T00:38:26.544Z,6.43
2018-07-04T00:41:09.211Z,4.90
2018-07-04T00:43:50.513Z,5.00
2018-07-04T00:46:31.352Z,5.20
2018-07-04T00:52:05.452Z,5.00
2018-07-04T00:54:49.762Z,5.37
2018-07-04T00:57:34.734Z,4.87
2018-07-04T01:00:16.057Z,5.80
2018-07-04T01:02:58.325Z,5.03
2018-07-04T01:05:43.334Z,5.73
2018-07-04T01:08:33.202Z,4.90
2018-07-04T01:15:06.666Z,6.13
2018-07-04T01:17:48.248Z,5.73
2018-07-04T01:20:39.643Z,6.30
2018-07-04T01:23:20.660Z,6.40
2018-07-04T01:26:09.266Z,5.27
2018-07-04T01:28:53.117Z,5.63
2018-07-04T01:31:36.586Z,4.50
2018-07-04T01:34:17.419Z,4.90
2018-07-04T01:37:02.222Z,5.77
2018-07-04T01:39:47.100Z,5.50
2018-07-04T01:45:20.386Z,5.40
2018-07-04T01:48:05.268Z,6.10
2018-07-04T01:50:52.651Z,6.87
2018-07-04T01:53:33.980Z,5.77
2018-07-04T02:04:59.726Z,5.13
2018-07-04T02:07:40.845Z,5.37
2018-07-04T02:34:15.760Z,8.50
2018-07-04T02:36:56.898Z,5.00
2018-07-04T02:39:38.320Z,5.20
2018-07-04T02:42:20.518Z,4.90
2018-07-04T02:45:01.400Z,5.63
2018-07-04T02:53:27.713Z,5.63
2018-07-04T02:56:09.392Z,6.47
2018-07-04T02:58:50.581Z,5.93
2018-07-04T03:01:33.628Z,5.93
2018-07-04T03:04:14.971Z,6.13
2018-07-04T03:07:03.619Z,5.77
2018-07-04T03:09:44.282Z,5.93
2018-07-04T03:12:26.550Z,5.60
2018-07-04T03:15:07.590Z,4.83
2018-07-04T03:17:49.666Z,7.47
2018-07-04T03:20:30.207Z,6.17
2018-07-04T03:23:17.314Z,6.67
2018-07-04T03:25:57.845Z,4.67
2018-07-04T03:28:41.054Z,6.43
2018-07-04T03:31:21.626Z,5.30
2018-07-04T03:34:03.640Z,5.80
2018-07-04T03:36:44.207Z,6.10
2018-07-04T03:39:25.218Z,5.83
2018-07-04T03:42:05.862Z,6.10
2018-07-04T03:44:47.168Z,9.10
2018-07-04T03:50:33.125Z,5.10
2018-07-04T03:53:21.053Z,5.33
2018-07-04T03:56:03.391Z,5.13
2018-07-04T03:58:49.360Z,5.47
2018-07-04T04:01:33.362Z,5.97
2018-07-04T04:04:13.793Z,5.77
2018-07-04T04:06:56.771Z,8.03
2018-07-04T04:09:44.364Z,6.07
2018-07-04T04:12:27.444Z,6.93
2018-07-04T04:15:08.515Z,7.13
2018-07-04T04:17:52.038Z,5.20
2018-07-04T04:20:34.146Z,5.53
2018-07-04T04:23:18.538Z,6.20
2018-07-04T04:25:59.225Z,8.07
2018-07-04T04:28:40.167Z,6.40
2018-07-04T04:31:20.670Z,6.30
2018-07-04T04:34:02.510Z,7.57
2018-07-04T04:36:43.273Z,4.87
2018-07-04T04:39:24.506Z,5.83
2018-07-04T04:42:04.973Z,5.77
2018-07-04T04:44:52.637Z,8.17
2018-07-04T04:47:33.193Z,6.13
2018-07-04T04:50:21.457Z,5.30
2018-07-04T04:53:02.394Z,4.87
2018-07-04T04:55:43.569Z,5.23
2018-07-04T04:58:27.558Z,7.30
2018-07-04T05:01:08.042Z,5.33
2018-07-04T05:03:48.632Z,6.13
2018-07-04T05:06:28.999Z,4.87
2018-07-04T05:09:10.673Z,6.00
2018-07-04T05:11:51.118Z,6.03
2018-07-04T05:14:33.908Z,7.37
2018-07-04T05:17:14.263Z,5.80
2018-07-04T05:19:55.065Z,6.40
2018-07-04T05:22:35.506Z,6.77
2018-07-04T05:25:16.394Z,6.40
2018-07-04T05:27:56.966Z,5.47
2018-07-04T05:30:37.860Z,4.43
2018-07-04T05:33:18.474Z,6.17
2018-07-04T05:35:59.286Z,6.77
2018-07-04T05:38:39.822Z,5.63
2018-07-04T05:41:21.811Z,5.40
2018-07-04T05:44:06.866Z,5.27
2018-07-04T05:46:49.119Z,5.33
2018-07-04T05:49:30.172Z,4.47
2018-07-04T05:52:11.090Z,6.07
2018-07-04T05:54:51.643Z,4.30
2018-07-04T05:57:37.980Z,6.40
2018-07-04T06:00:19.257Z,4.37
2018-07-04T06:03:04.820Z,6.53
2018-07-04T06:05:47.765Z,5.60
2018-07-04T06:08:33.905Z,5.70
2018-07-04T06:11:17.970Z,4.53
2018-07-04T06:14:00.537Z,4.83
2018-07-04T06:16:41.027Z,4.60
2018-07-04T06:19:23.085Z,7.90
2018-07-04T06:22:03.528Z,3.97
2018-07-04T06:24:45.378Z,4.20
2018-07-04T06:30:18.118Z,5.03
2018-07-04T06:32:58.684Z,4.57
2018-07-04T06:35:39.878Z,4.50
2018-07-04T06:38:08.642Z,6.90
2018-07-04T06:40:45.104Z,4.50
2018-07-04T06:43:14.521Z,9.13
2018-07-04T06:45:42.824Z,4.77
2018-07-04T06:48:13.931Z,4.63
2018-07-04T06:50:42.234Z,4.87
2018-07-04T06:53:14.199Z,6.70
2018-07-04T06:55:43.315Z,5.83
2018-07-04T06:58:12.222Z,5.53
2018-07-04T07:00:40.581Z,5.43
2018-07-04T07:03:21.259Z,5.60
2018-07-04T07:06:05.109Z,4.83
2018-07-04T07:08:46.915Z,6.37
2018-07-04T07:11:27.453Z,3.77
2018-07-04T07:14:08.422Z,5.47
2018-07-04T07:16:48.973Z,10.53
2018-07-04T07:19:29.730Z,5.00
2018-07-04T07:22:10.402Z,6.93
2018-07-04T07:24:51.091Z,6.33
2018-07-04T07:27:31.662Z,5.17
2018-07-04T07:30:15.668Z,5.70
2018-07-04T07:32:57.362Z,4.20
2018-07-04T07:35:38.643Z,4.87
2018-07-04T07:38:19.332Z,3.33
2018-07-04T07:41:00.092Z,4.23
2018-07-04T07:43:40.942Z,4.43
2018-07-04T07:46:23.864Z,5.07
2018-07-04T07:49:09.667Z,4.00
2018-07-04T07:51:52.588Z,3.87
2018-07-04T07:54:33.150Z,3.67
2018-07-04T07:57:13.843Z,2.97
2018-07-04T07:59:54.342Z,4.13
2018-07-04T08:02:35.359Z,3.83
2018-07-04T08:05:16.023Z,5.13
2018-07-04T08:07:57.989Z,3.47
2018-07-04T08:10:38.887Z,2.83
2018-07-04T08:16:15.425Z,5.47
2018-07-04T08:18:56.061Z,4.77
2018-07-04T08:21:36.998Z,3.07
2018-07-04T08:24:33.633Z,3.83
2018-07-04T08:27:15.209Z,3.57
2018-07-04T08:29:55.877Z,4.57
2018-07-04T08:32:36.879Z,3.30
2018-07-04T08:35:20.073Z,3.87
2018-07-04T08:38:00.604Z,3.03
2018-07-04T08:40:41.445Z,2.20
2018-07-04T08:43:22.232Z,4.77
2018-07-04T08:46:02.544Z,3.30
2018-07-04T08:48:44.085Z,3.83
2018-07-04T08:51:26.986Z,4.47
2018-07-04T08:54:07.910Z,2.50
2018-07-04T08:56:48.312Z,3.27
2018-07-04T08:59:30.218Z,3.97
2018-07-04T09:02:10.670Z,2.37
2018-07-04T09:04:52.985Z,4.00
2018-07-04T09:07:33.857Z,3.53
2018-07-04T09:10:15.239Z,3.07
2018-07-04T09:19:24.685Z,5.90
2018-07-04T09:25:02.360Z,5.17
2018-07-04T09:27:45.818Z,4.07
2018-07-04T09:30:29.825Z,3.57
2018-07-04T09:33:10.921Z,3.47
2018-07-04T09:35:51.304Z,3.23
2018-07-04T09:38:32.750Z,4.57
2018-07-04T09:41:13.558Z,4.17
2018-07-04T09:43:55.322Z,4.67
2018-07-04T09:46:37.122Z,3.43
2018-07-04T09:49:26.082Z,3.20
2018-07-04T09:52:10.817Z,5.33
2018-07-04T09:55:07.044Z,2.63
2018-07-04T09:58:00.105Z,5.33
2018-07-04T10:00:46.894Z,3.77
2018-07-04T10:03:27.541Z,5.70
2018-07-04T10:06:10.676Z,4.20
2018-07-04T10:08:51.186Z,4.80
2018-07-04T10:11:31.879Z,7.47
2018-07-04T10:14:12.154Z,7.03
2018-07-04T10:16:54.797Z,8.07
2018-07-04T10:19:35.281Z,11.17
2018-07-04T10:22:18.208Z,9.37
2018-07-04T10:24:59.336Z,7.07
2018-07-04T10:27:43.577Z,7.80
2018-07-04T10:30:23.922Z,6.50
2018-07-04T10:33:05.762Z,7.93
2018-07-04T10:35:46.085Z,12.60
2018-07-04T10:38:26.613Z,8.33
2018-07-04T10:41:06.968Z,8.37
2018-07-04T10:43:48.661Z,7.30
2018-07-04T10:46:29.021Z,6.70
2018-07-04T10:49:09.532Z,7.50
2018-07-04T10:51:49.938Z,10.53
2018-07-04T10:54:32.739Z,10.23
2018-07-04T10:57:13.477Z,13.60
2018-07-04T10:59:54.067Z,15.60
2018-07-04T11:02:34.595Z,10.57
2018-07-04T11:05:17.277Z,9.23
2018-07-04T11:07:57.771Z,10.70
2018-07-04T11:10:38.312Z,13.83
2018-07-04T11:13:18.764Z,12.50
2018-07-04T11:15:59.512Z,12.00
2018-07-04T11:18:40.081Z,13.53
2018-07-04T11:21:20.689Z,11.47
2018-07-04T11:24:01.203Z,13.43
2018-07-04T11:26:41.870Z,10.60
2018-07-04T11:29:22.379Z,14.43
2018-07-04T11:32:17.430Z,14.53
2018-07-04T11:34:58.116Z,14.63
2018-07-04T11:37:38.909Z,13.83
2018-07-04T11:40:19.261Z,15.17
2018-07-04T11:43:22.086Z,15.37
2018-07-04T11:45:58.633Z,12.57
2018-07-04T11:48:28.145Z,12.40
2018-07-04T11:50:56.525Z,15.80
2018-07-04T11:53:24.697Z,14.30
2018-07-04T11:55:53.048Z,12.07
2018-07-04T11:58:21.464Z,11.50
2018-07-04T12:00:49.706Z,10.30
2018-07-04T12:03:20.559Z,13.83
2018-07-04T12:06:01.141Z,12.97
2018-07-04T12:08:29.634Z,18.53
2018-07-04T12:10:58.420Z,10.47
2018-07-04T12:13:27.508Z,11.70
2018-07-04T12:15:56.023Z,11.30
2018-07-04T12:18:24.633Z,8.43
2018-07-04T12:20:52.814Z,6.70
2018-07-04T12:23:22.696Z,7.30
2018-07-04T12:25:52.101Z,7.27
2018-07-04T12:28:20.216Z,6.83
2018-07-04T12:30:48.377Z,7.03
2018-07-04T12:33:17.751Z,5.10
2018-07-04T12:35:46.137Z,4.67
2018-07-04T12:38:14.306Z,4.80
2018-07-04T12:40:44.385Z,4.03
2018-07-04T12:43:15.836Z,4.40
2018-07-04T12:45:43.982Z,4.33
2018-07-04T12:48:12.421Z,4.37
2018-07-04T12:50:40.722Z,3.73
2018-07-04T12:53:08.954Z,5.00
2018-07-04T12:55:49.547Z,3.87
2018-07-04T12:58:31.639Z,3.40
2018-07-04T13:01:12.328Z,3.30
2018-07-04T13:03:52.893Z,4.00
2018-07-04T13:06:33.953Z,4.27
2018-07-04T13:09:14.461Z,4.07
2018-07-04T13:11:55.674Z,3.60
2018-07-04T13:14:36.369Z,3.03
2018-07-04T13:17:17.217Z,6.80
2018-07-04T13:19:58.262Z,3.33
2018-07-04T13:22:43.599Z,4.83
2018-07-04T13:25:25.136Z,3.10
2018-07-04T13:28:06.621Z,3.50
2018-07-04T13:30:47.210Z,3.17
2018-07-04T13:33:28.313Z,2.83
2018-07-04T13:36:08.718Z,3.40
2018-07-04T13:38:49.955Z,2.57
2018-07-04T13:41:35.279Z,3.80
2018-07-04T13:44:18.061Z,4.20
2018-07-04T13:47:03.800Z,3.27
2018-07-04T13:49:44.452Z,2.40
2018-07-04T13:52:24.965Z,2.40
2018-07-04T13:55:06.372Z,2.60
2018-07-04T13:57:46.824Z,4.60
2018-07-04T14:00:27.544Z,3.57
2018-07-04T14:03:08.095Z,3.30
2018-07-04T14:05:48.379Z,3.20
2018-07-04T14:08:28.861Z,2.30
2018-07-04T14:11:09.450Z,3.10
2018-07-04T14:13:49.968Z,3.10
2018-07-04T14:16:30.544Z,3.63
2018-07-04T14:19:10.920Z,3.90
2018-07-04T14:21:51.538Z,2.83
2018-07-04T14:24:32.357Z,3.33
2018-07-04T14:27:17.148Z,3.27
2018-07-04T14:29:58.393Z,3.60
2018-07-04T14:32:39.024Z,3.40
2018-07-04T14:35:19.445Z,5.10
2018-07-04T14:38:03.936Z,3.80
2018-07-04T14:40:44.392Z,4.00
2018-07-04T14:43:24.883Z,5.30
2018-07-04T14:46:05.224Z,3.67
2018-07-04T14:48:45.861Z,6.57
2018-07-04T14:51:28.810Z,5.63
2018-07-04T14:54:09.528Z,3.87
2018-07-04T14:56:50.017Z,5.13
2018-07-04T14:59:31.021Z,4.30
2018-07-04T15:02:11.546Z,5.80
2018-07-04T15:04:52.244Z,5.97
2018-07-04T15:07:32.604Z,4.60
2018-07-04T15:10:13.564Z,4.67
2018-07-04T15:12:54.516Z,3.50
2018-07-04T15:15:36.264Z,4.03
2018-07-04T15:18:16.578Z,4.27
2018-07-04T15:20:57.282Z,2.83
2018-07-04T15:23:37.763Z,3.67
2018-07-04T15:26:18.420Z,5.93
2018-07-04T15:29:00.175Z,3.30
2018-07-04T15:37:28.205Z,3.43
2018-07-04T15:42:57.456Z,4.07
2018-07-04T15:45:38.851Z,4.10
2018-07-04T15:48:19.574Z,2.97
2018-07-04T15:51:07.351Z,3.93
2018-07-04T15:53:48.626Z,3.67
2018-07-04T15:59:15.211Z,3.60
2018-07-04T16:01:55.500Z,4.67
2018-07-04T16:04:36.069Z,5.93
2018-07-04T16:07:17.321Z,3.23
2018-07-04T16:13:25.490Z,3.23
2018-07-04T16:16:06.538Z,3.27
2018-07-04T16:18:47.057Z,3.20
2018-07-04T16:21:28.182Z,2.80
2018-07-04T16:24:08.880Z,4.00
2018-07-04T16:26:54.006Z,3.90
2018-07-04T16:29:34.462Z,3.97
2018-07-04T16:32:15.439Z,4.57
2018-07-04T16:34:55.755Z,6.10
2018-07-04T16:37:36.602Z,8.63
2018-07-04T16:40:17.021Z,4.33
2018-07-04T16:42:58.991Z,4.03
2018-07-04T16:45:39.613Z,4.20
2018-07-04T16:48:21.535Z,5.97
2018-07-04T16:51:02.022Z,5.30
2018-07-04T16:53:44.863Z,8.30
2018-07-04T16:56:26.069Z,7.30
2018-07-04T16:59:11.095Z,4.10
2018-07-04T17:01:52.192Z,3.40
2018-07-04T17:04:33.580Z,3.60
2018-07-04T17:07:15.635Z,5.90
2018-07-04T17:10:01.333Z,4.93
2018-07-04T17:12:42.326Z,4.20
2018-07-04T17:15:24.539Z,6.17
2018-07-04T17:18:06.216Z,5.70
2018-07-04T17:20:49.790Z,9.53
2018-07-04T17:23:30.432Z,4.13
2018-07-04T17:26:11.193Z,6.20
2018-07-04T17:28:52.378Z,5.27
2018-07-04T17:31:33.187Z,3.83
2018-07-04T17:34:14.021Z,4.37
2018-07-04T17:36:55.160Z,3.43
2018-07-04T17:39:38.035Z,7.07
2018-07-04T17:42:20.102Z,5.80
2018-07-04T17:45:00.716Z,4.53
2018-07-04T17:47:42.114Z,5.03
2018-07-04T17:50:24.715Z,6.40
2018-07-04T17:53:10.687Z,3.60
2018-07-04T17:55:53.504Z,5.17
2018-07-04T18:01:43.079Z,4.00
2018-07-04T18:04:24.285Z,4.60
2018-07-04T18:07:05.098Z,4.33
2018-07-04T18:09:51.321Z,4.23
2018-07-04T18:15:45.616Z,3.97
2018-07-04T18:18:26.180Z,6.47
2018-07-04T18:21:14.110Z,4.27
2018-07-04T18:23:56.074Z,6.73
2018-07-04T18:26:40.275Z,4.20
2018-07-04T18:29:27.660Z,4.13
2018-07-04T18:32:08.729Z,6.40
2018-07-04T18:34:49.332Z,8.33
2018-07-04T18:37:31.184Z,4.57
2018-07-04T18:40:11.697Z,7.63
2018-07-04T18:42:52.389Z,4.83
2018-07-04T18:45:33.092Z,4.13
2018-07-04T18:48:14.190Z,4.23
2018-07-04T18:50:56.359Z,6.23
2018-07-04T18:53:41.318Z,5.07
2018-07-04T18:56:22.720Z,4.00
2018-07-04T18:59:04.133Z,4.20
2018-07-04T19:01:44.967Z,5.50
2018-07-04T19:04:26.728Z,4.30
2018-07-04T19:07:10.803Z,5.13
2018-07-04T19:10:02.053Z,5.23
2018-07-04T19:12:42.688Z,4.83
2018-07-04T19:15:30.011Z,5.93
2018-07-04T19:18:10.812Z,4.23
2018-07-04T19:20:52.305Z,6.53
2018-07-04T19:23:34.639Z,4.83
2018-07-04T19:29:01.772Z,6.10
2018-07-04T19:37:29.623Z,5.17
2018-07-04T19:40:10.880Z,4.93
2018-07-04T19:42:53.620Z,5.20
2018-07-04T19:45:38.826Z,5.20
2018-07-04T19:48:19.421Z,4.63
2018-07-04T19:51:00.349Z,4.33
2018-07-04T19:53:41.116Z,4.87
2018-07-04T19:56:24.485Z,5.03
2018-07-04T19:59:06.234Z,5.07
2018-07-04T20:01:49.235Z,4.97
2018-07-04T20:04:30.667Z,4.87
2018-07-04T20:07:12.310Z,4.80
2018-07-04T20:09:53.106Z,4.73
2018-07-04T20:12:35.101Z,5.87
2018-07-04T20:15:15.698Z,5.20
2018-07-04T20:17:59.324Z,6.07
2018-07-04T20:20:42.022Z,5.87
2018-07-04T20:23:29.068Z,5.83
2018-07-04T20:26:10.543Z,5.13
2018-07-04T20:28:59.476Z,7.00
2018-07-04T20:31:40.420Z,5.67
2018-07-04T20:34:23.704Z,6.73
2018-07-04T20:37:04.667Z,5.57
2018-07-04T20:39:46.507Z,5.10
2018-07-04T20:42:27.157Z,5.63
2018-07-04T20:45:08.400Z,7.50
2018-07-04T20:47:49.211Z,5.83
2018-07-04T20:50:33.612Z,6.23
2018-07-04T20:53:14.633Z,5.57
2018-07-04T20:55:55.832Z,5.40
2018-07-04T20:58:36.524Z,5.87
2018-07-04T21:01:19.632Z,5.13
2018-07-04T21:04:00.874Z,5.97
2018-07-04T21:06:42.770Z,6.97
2018-07-04T21:09:23.826Z,5.60
2018-07-04T21:12:04.823Z,4.80
2018-07-04T21:14:45.581Z,7.20
2018-07-04T21:17:26.721Z,5.30
2018-07-04T21:20:07.845Z,5.67
2018-07-04T21:22:53.109Z,5.23
2018-07-04T21:25:34.509Z,6.27
2018-07-04T21:28:15.548Z,7.53
2018-07-04T21:30:56.198Z,10.73
2018-07-04T21:33:39.448Z,6.60
2018-07-04T21:36:20.685Z,5.77
2018-07-04T21:39:04.358Z,5.10
2018-07-04T21:41:45.263Z,7.27
2018-07-04T21:44:29.777Z,6.10
2018-07-04T21:47:10.449Z,6.70
2018-07-04T21:49:55.478Z,6.10
2018-07-04T21:52:36.315Z,5.97
2018-07-04T21:55:20.297Z,6.00
2018-07-04T21:58:02.364Z,6.80
2018-07-04T22:00:45.389Z,6.30
2018-07-04T22:03:26.371Z,6.10
2018-07-04T22:06:11.414Z,6.53
2018-07-04T22:08:51.954Z,7.77
2018-07-04T22:11:32.991Z,5.60
2018-07-04T22:14:13.421Z,6.10
2018-07-04T22:16:54.182Z,6.20
2018-07-04T22:19:34.786Z,6.10
2018-07-04T22:22:16.862Z,6.13
2018-07-04T22:24:57.584Z,6.23
2018-07-04T22:27:40.563Z,6.30
2018-07-04T22:30:21.184Z,6.90
2018-07-04T22:33:04.735Z,6.17
2018-07-04T22:35:45.148Z,6.97
2018-07-04T22:38:27.053Z,6.23
2018-07-04T22:41:07.609Z,6.43
2018-07-04T22:43:49.705Z,6.67
2018-07-04T22:46:30.460Z,6.33
2018-07-04T22:49:13.281Z,6.90
2018-07-04T22:51:53.862Z,5.97
2018-07-04T22:54:34.724Z,6.00
2018-07-04T22:57:15.558Z,6.93
2018-07-04T23:00:00.161Z,7.43
2018-07-04T23:02:40.894Z,6.27
2018-07-04T23:05:25.486Z,8.17
2018-07-04T23:08:07.285Z,6.63
2018-07-04T23:10:48.965Z,7.50
2018-07-04T23:13:29.612Z,5.97
2018-07-04T23:16:10.667Z,10.20
2018-07-04T23:18:51.078Z,7.10
2018-07-04T23:21:42.029Z,6.97
2018-07-04T23:24:23.058Z,7.07
2018-07-04T23:27:03.934Z,6.50
2018-07-04T23:29:44.870Z,6.13
2018-07-04T23:32:26.794Z,6.43
2018-07-04T23:35:07.765Z,6.77
2018-07-04T23:37:49.926Z,7.30
2018-07-04T23:40:30.394Z,6.97
2018-07-04T23:43:13.616Z,7.23
2018-07-04T23:45:53.882Z,8.00
2018-07-04T23:51:30.350Z,8.37
2018-07-04T23:54:10.681Z,7.23
2018-07-04T23:56:52.941Z,7.13
2018-07-04T23:59:33.296Z,7.23
